Time;durP1;ratioP1;P1;durP2;ratioP2;P2;SDS_P1;SDS_P2;PMS_P1;PMS_P2;Temp;Humidity;BMP_temperature;BMP_pressure;BME280_temperature;BME280_humidity;BME280_pressure;Samples;Min_cycle;Max_cycle;Signal;HPM_P1;HPM_P2
2022/06/30 00:00:32;;;;;;;26.73;25.00;;;;;;;;;;5092880;28;20426;-78
2022/06/30 00:02:59;;;;;;;27.40;25.70;;;;;;;;;;5092619;28;20440;-78
2022/06/30 00:05:26;;;;;;;26.60;25.00;;;;;;;;;;5092429;28;20834;-78
2022/06/30 00:07:55;;;;;;;27.30;25.70;;;;;;;;;;5092525;28;20558;-78
2022/06/30 00:10:22;;;;;;;27.73;26.10;;;;;;;;;;5092373;28;20411;-78
2022/06/30 00:12:50;;;;;;;28.87;27.13;;;;;;;;;;5094920;28;20572;-78
2022/06/30 00:15:17;;;;;;;28.10;26.50;;;;;;;;;;5096830;28;20434;-78
2022/06/30 00:17:44;;;;;;;26.93;25.33;;;;;;;;;;5096770;28;20420;-78
2022/06/30 00:20:12;;;;;;;27.60;25.90;;;;;;;;;;5096650;28;20459;-78
2022/06/30 00:22:39;;;;;;;27.60;26.00;;;;;;;;;;5096809;28;20407;-78
2022/06/30 00:25:09;;;;;;;26.53;24.97;;;;;;;;;;5096321;28;20424;-78
2022/06/30 00:27:36;;;;;;;27.43;25.73;;;;;;;;;;5096301;28;20421;-78
2022/06/30 00:30:03;;;;;;;28.43;26.60;;;;;;;;;;5096520;28;20414;-77
2022/06/30 00:32:31;;;;;;;27.90;26.30;;;;;;;;;;5096439;28;20978;-77
2022/06/30 00:34:58;;;;;;;29.13;27.20;;;;;;;;;;5096550;28;20439;-77
2022/06/30 00:37:25;;;;;;;27.63;25.83;;;;;;;;;;5096406;28;20432;-77
2022/06/30 00:39:53;;;;;;;29.27;27.37;;;;;;;;;;5096372;28;20434;-78
2022/06/30 00:42:22;;;;;;;28.17;26.47;;;;;;;;;;5096051;28;20442;-77
2022/06/30 00:44:50;;;;;;;27.80;26.10;;;;;;;;;;5096197;28;20460;-78
2022/06/30 00:47:17;;;;;;;29.83;26.70;;;;;;;;;;5096202;28;20436;-77
2022/06/30 00:49:45;;;;;;;27.30;25.67;;;;;;;;;;5095755;28;20517;-78
2022/06/30 00:52:12;;;;;;;26.60;25.00;;;;;;;;;;5096102;28;20441;-78
2022/06/30 00:54:40;;;;;;;27.57;25.97;;;;;;;;;;5095876;28;20455;-78
2022/06/30 00:57:10;;;;;;;27.27;25.50;;;;;;;;;;5095793;28;20792;-78
2022/06/30 00:59:40;;;;;;;27.27;25.67;;;;;;;;;;5096041;28;20437;-78
2022/06/30 01:02:08;;;;;;;27.33;25.63;;;;;;;;;;5095714;28;20440;-78
2022/06/30 01:04:36;;;;;;;27.70;26.00;;;;;;;;;;5095446;28;20927;-77
2022/06/30 01:07:03;;;;;;;27.37;25.77;;;;;;;;;;5095850;28;20425;-78
2022/06/30 01:14:59;;;;;;;26.90;25.30;;;;;;;;;;5095804;28;20417;-78
2022/06/30 01:17:27;;;;;;;28.70;26.83;;;;;;;;;;5095434;28;20484;-78
2022/06/30 01:19:54;;;;;;;27.43;25.67;;;;;;;;;;5095258;28;20417;-78
2022/06/30 01:22:23;;;;;;;27.53;25.83;;;;;;;;;;5095295;28;20449;-77
2022/06/30 01:24:50;;;;;;;27.60;25.80;;;;;;;;;;5094484;28;20420;-78
2022/06/30 01:27:18;;;;;;;27.33;25.53;;;;;;;;;;5095247;28;20433;-78
2022/06/30 01:29:45;;;;;;;27.90;26.17;;;;;;;;;;5095460;28;20423;-78
2022/06/30 01:32:13;;;;;;;28.07;26.40;;;;;;;;;;5095373;28;20442;-78
2022/06/30 01:34:40;;;;;;;27.07;25.40;;;;;;;;;;5094979;28;20482;-78
2022/06/30 01:37:07;;;;;;;28.60;26.80;;;;;;;;;;5095030;28;20411;-78
2022/06/30 01:39:36;;;;;;;27.53;25.93;;;;;;;;;;5094907;28;20433;-78
2022/06/30 01:42:04;;;;;;;26.87;25.27;;;;;;;;;;5094906;28;20450;-77
2022/06/30 01:44:31;;;;;;;27.43;25.93;;;;;;;;;;5094788;28;20438;-78
2022/06/30 01:46:58;;;;;;;26.80;25.20;;;;;;;;;;5094735;28;20948;-78
2022/06/30 01:49:26;;;;;;;27.70;26.10;;;;;;;;;;5094731;28;20473;-78
2022/06/30 01:51:53;;;;;;;27.20;25.53;;;;;;;;;;5094776;28;20549;-78
2022/06/30 01:54:20;;;;;;;27.37;25.70;;;;;;;;;;5094939;28;20481;-77
2022/06/30 01:56:49;;;;;;;28.30;26.50;;;;;;;;;;5094935;28;20424;-78
2022/06/30 01:59:17;;;;;;;26.10;24.50;;;;;;;;;;5094649;28;20408;-78
2022/06/30 02:01:44;;;;;;;26.80;25.20;;;;;;;;;;5094820;28;20447;-78
2022/06/30 02:07:04;;;;;;;27.80;26.10;;;;;;;;;;5031996;28;20433;-78
2022/06/30 02:09:32;;;;;;;27.60;25.90;;;;;;;;;;5031986;28;20436;-77
2022/06/30 02:14:45;;;;;;;26.70;25.07;;;;;;;;;;5031922;28;20450;-77
2022/06/30 02:17:12;;;;;;;27.20;25.53;;;;;;;;;;5031854;28;20459;-77
2022/06/30 02:19:40;;;;;;;27.63;25.83;;;;;;;;;;5031770;28;20422;-77
2022/06/30 02:22:07;;;;;;;27.63;26.00;;;;;;;;;;5031872;28;20411;-77
2022/06/30 02:24:34;;;;;;;26.30;24.80;;;;;;;;;;5031711;28;20788;-77
2022/06/30 02:27:03;;;;;;;28.27;26.47;;;;;;;;;;5031690;28;20434;-77
2022/06/30 02:29:30;;;;;;;27.83;26.00;;;;;;;;;;5031691;28;20433;-77
2022/06/30 02:31:58;;;;;;;26.67;25.07;;;;;;;;;;5031675;28;20439;-78
2022/06/30 02:34:25;;;;;;;27.10;25.30;;;;;;;;;;5031408;28;20495;-77
2022/06/30 02:36:52;;;;;;;27.00;25.20;;;;;;;;;;5030465;28;20429;-79
2022/06/30 02:39:20;;;;;;;27.10;25.50;;;;;;;;;;5031469;28;20930;-77
2022/06/30 02:41:47;;;;;;;28.77;26.90;;;;;;;;;;5034830;28;20467;-77
2022/06/30 02:44:16;;;;;;;27.73;26.03;;;;;;;;;;5093962;28;20447;-77
2022/06/30 02:46:43;;;;;;;26.73;25.03;;;;;;;;;;5093619;28;20440;-77
2022/06/30 02:49:10;;;;;;;26.70;25.00;;;;;;;;;;5093636;28;20415;-77
2022/06/30 02:51:38;;;;;;;27.33;25.57;;;;;;;;;;5093603;28;20416;-77
2022/06/30 02:54:05;;;;;;;27.90;26.20;;;;;;;;;;5093386;28;20481;-77
2022/06/30 02:56:32;;;;;;;27.27;25.60;;;;;;;;;;5093764;28;20420;-77
2022/06/30 02:58:59;;;;;;;27.13;25.33;;;;;;;;;;5093769;28;20436;-77
2022/06/30 03:01:28;;;;;;;27.83;25.90;;;;;;;;;;5093386;28;20441;-77
2022/06/30 03:03:55;;;;;;;28.87;26.90;;;;;;;;;;5093542;28;20419;-77
2022/06/30 03:06:23;;;;;;;27.23;25.53;;;;;;;;;;5093325;28;20427;-77
2022/06/30 03:08:50;;;;;;;28.87;26.93;;;;;;;;;;5093228;28;20416;-77
2022/06/30 03:11:17;;;;;;;28.37;26.20;;;;;;;;;;5093314;28;20499;-77
2022/06/30 03:13:45;;;;;;;28.67;26.87;;;;;;;;;;5093074;28;20972;-77
2022/06/30 03:16:12;;;;;;;30.17;28.07;;;;;;;;;;5093239;28;20479;-77
2022/06/30 03:18:41;;;;;;;28.20;26.03;;;;;;;;;;5093297;28;20420;-77
2022/06/30 03:21:09;;;;;;;28.53;26.63;;;;;;;;;;5093149;28;20885;-77
2022/06/30 03:23:36;;;;;;;27.97;26.17;;;;;;;;;;5093286;28;20765;-78
2022/06/30 03:26:04;;;;;;;28.80;27.00;;;;;;;;;;5092994;28;20441;-78
2022/06/30 03:28:32;;;;;;;29.53;27.63;;;;;;;;;;5093366;28;20412;-79
2022/06/30 03:30:59;;;;;;;30.03;28.13;;;;;;;;;;5093263;28;20420;-76
2022/06/30 03:33:27;;;;;;;29.77;27.87;;;;;;;;;;5092736;28;20440;-76
2022/06/30 03:35:55;;;;;;;31.07;28.77;;;;;;;;;;5093128;28;20430;-76
2022/06/30 03:38:23;;;;;;;29.63;27.63;;;;;;;;;;5093225;28;20434;-77
2022/06/30 03:40:50;;;;;;;29.33;27.33;;;;;;;;;;5093147;28;20495;-77
2022/06/30 03:43:18;;;;;;;31.03;28.93;;;;;;;;;;5093075;28;20437;-77
2022/06/30 03:45:45;;;;;;;31.27;28.80;;;;;;;;;;5092699;28;20469;-77
2022/06/30 03:48:12;;;;;;;29.97;27.97;;;;;;;;;;5092290;28;20806;-77
2022/06/30 03:50:40;;;;;;;29.73;27.93;;;;;;;;;;5092595;28;20476;-77
2022/06/30 03:53:08;;;;;;;30.10;28.13;;;;;;;;;;5093004;28;20445;-77
2022/06/30 03:55:39;;;;;;;30.97;28.80;;;;;;;;;;5092658;28;20444;-77
2022/06/30 03:58:06;;;;;;;30.50;28.50;;;;;;;;;;5092615;28;20491;-77
2022/06/30 04:00:34;;;;;;;29.47;27.67;;;;;;;;;;5092937;28;20420;-77
2022/06/30 04:03:02;;;;;;;30.90;28.80;;;;;;;;;;5092515;28;20442;-77
2022/06/30 04:05:29;;;;;;;30.83;28.73;;;;;;;;;;5092657;28;20819;-77
2022/06/30 04:07:56;;;;;;;31.90;29.53;;;;;;;;;;5092488;28;20420;-77
2022/06/30 04:10:25;;;;;;;29.60;27.57;;;;;;;;;;5092768;28;20433;-77
2022/06/30 04:12:52;;;;;;;30.00;28.10;;;;;;;;;;5092476;28;20437;-77
2022/06/30 04:15:20;;;;;;;30.03;28.03;;;;;;;;;;5092327;28;20475;-77
2022/06/30 04:17:47;;;;;;;31.80;29.67;;;;;;;;;;5092896;28;20412;-77
2022/06/30 04:20:17;;;;;;;31.27;29.07;;;;;;;;;;5092572;28;20437;-77
2022/06/30 04:22:45;;;;;;;30.23;28.23;;;;;;;;;;5092356;28;20440;-77
2022/06/30 04:25:13;;;;;;;30.93;28.77;;;;;;;;;;5092233;28;20819;-77
2022/06/30 04:27:45;;;;;;;32.23;30.03;;;;;;;;;;5092717;28;20436;-77
2022/06/30 04:30:13;;;;;;;31.90;29.60;;;;;;;;;;5092600;28;20444;-77
2022/06/30 04:32:40;;;;;;;32.27;30.17;;;;;;;;;;5092276;28;20916;-77
2022/06/30 04:35:08;;;;;;;32.70;30.20;;;;;;;;;;5092533;28;20485;-76
2022/06/30 04:37:36;;;;;;;30.90;28.70;;;;;;;;;;5092489;28;20438;-76
2022/06/30 04:42:50;;;;;;;33.17;30.23;;;;;;;;;;5085505;28;20393;-77
2022/06/30 04:45:18;;;;;;;31.30;29.13;;;;;;;;;;5074050;28;20436;-77
2022/06/30 04:47:45;;;;;;;31.20;29.00;;;;;;;;;;5078033;28;20432;-81
2022/06/30 04:50:12;;;;;;;32.43;30.33;;;;;;;;;;5089390;28;20492;-80
2022/06/30 04:52:40;;;;;;;31.03;29.03;;;;;;;;;;5092296;28;20415;-80
2022/06/30 04:55:08;;;;;;;32.37;30.17;;;;;;;;;;5092444;28;20459;-75
2022/06/30 04:57:35;;;;;;;32.73;30.53;;;;;;;;;;5087998;28;20470;-78
2022/06/30 05:00:05;;;;;;;34.03;31.60;;;;;;;;;;5082755;28;20433;-79
2022/06/30 05:02:34;;;;;;;32.67;30.50;;;;;;;;;;5074348;28;21021;-75
2022/06/30 05:05:01;;;;;;;33.07;30.57;;;;;;;;;;5074985;28;20409;-81
2022/06/30 05:07:29;;;;;;;32.10;29.90;;;;;;;;;;5075659;28;20443;-80
2022/06/30 05:09:56;;;;;;;33.00;30.80;;;;;;;;;;5075307;28;20801;-82
2022/06/30 05:12:23;;;;;;;33.27;31.00;;;;;;;;;;5074441;28;20979;-78
2022/06/30 05:14:51;;;;;;;32.87;30.53;;;;;;;;;;5075527;28;20481;-82
2022/06/30 05:17:20;;;;;;;34.13;31.83;;;;;;;;;;5075580;28;20424;-75
2022/06/30 05:19:47;;;;;;;34.33;31.90;;;;;;;;;;5075274;28;20413;-74
2022/06/30 05:22:14;;;;;;;32.90;30.50;;;;;;;;;;5075383;28;20442;-75
2022/06/30 05:27:26;;;;;;;32.83;30.63;;;;;;;;;;5075090;28;20543;-74
2022/06/30 05:29:54;;;;;;;32.43;30.20;;;;;;;;;;5074940;28;20969;-75
2022/06/30 05:32:23;;;;;;;31.87;29.77;;;;;;;;;;5075264;28;20598;-75
2022/06/30 05:34:50;;;;;;;32.23;30.13;;;;;;;;;;5075163;28;20457;-73
2022/06/30 05:37:18;;;;;;;31.73;29.57;;;;;;;;;;5074812;28;20398;-73
2022/06/30 05:39:45;;;;;;;33.27;30.77;;;;;;;;;;5075035;28;20481;-79
2022/06/30 05:42:12;;;;;;;32.33;30.07;;;;;;;;;;5074981;28;20441;-73
2022/06/30 05:44:39;;;;;;;32.23;30.23;;;;;;;;;;5074644;28;20472;-73
2022/06/30 05:47:07;;;;;;;31.87;29.70;;;;;;;;;;5074760;28;20434;-75
2022/06/30 05:49:37;;;;;;;32.20;30.00;;;;;;;;;;5074194;28;20468;-75
2022/06/30 05:52:04;;;;;;;32.20;30.17;;;;;;;;;;5074889;28;20454;-79
2022/06/30 05:54:32;;;;;;;33.33;31.23;;;;;;;;;;5074706;28;20477;-78
2022/06/30 05:57:00;;;;;;;31.80;29.67;;;;;;;;;;5074497;28;20904;-79
2022/06/30 05:59:27;;;;;;;31.90;29.80;;;;;;;;;;5074424;28;20494;-80
2022/06/30 06:01:54;;;;;;;31.27;29.27;;;;;;;;;;5077337;28;20451;-78
2022/06/30 06:04:22;;;;;;;31.20;29.13;;;;;;;;;;5085693;28;20445;-79
2022/06/30 06:06:50;;;;;;;31.13;29.00;;;;;;;;;;5094424;28;20444;-80
2022/06/30 06:09:17;;;;;;;32.40;30.47;;;;;;;;;;5094480;28;20434;-79
2022/06/30 06:11:45;;;;;;;32.20;30.20;;;;;;;;;;5094117;28;20451;-79
2022/06/30 06:14:12;;;;;;;31.73;29.70;;;;;;;;;;5094555;28;20454;-79
2022/06/30 06:16:40;;;;;;;32.03;29.83;;;;;;;;;;5094553;28;20470;-78
2022/06/30 06:19:07;;;;;;;32.07;30.00;;;;;;;;;;5094024;28;20432;-77
2022/06/30 06:21:36;;;;;;;30.53;28.50;;;;;;;;;;5094110;28;20924;-78
2022/06/30 06:24:05;;;;;;;32.30;30.10;;;;;;;;;;5094244;28;20408;-77
2022/06/30 06:26:32;;;;;;;31.47;29.37;;;;;;;;;;5094120;28;20412;-78
2022/06/30 06:29:09;;;;;;;31.60;29.50;;;;;;;;;;5094004;28;20416;-79
2022/06/30 06:31:37;;;;;;;30.97;28.97;;;;;;;;;;5093932;28;20943;-80
2022/06/30 06:34:05;;;;;;;30.87;28.87;;;;;;;;;;5093914;28;20436;-79
2022/06/30 06:36:32;;;;;;;34.20;31.90;;;;;;;;;;5093953;28;20416;-85
2022/06/30 06:39:00;;;;;;;32.00;29.90;;;;;;;;;;5094155;28;20412;-79
2022/06/30 06:41:29;;;;;;;31.40;29.30;;;;;;;;;;5075657;28;20914;-79
2022/06/30 06:43:56;;;;;;;31.20;29.20;;;;;;;;;;5094061;28;20438;-78
2022/06/30 06:46:26;;;;;;;30.90;29.00;;;;;;;;;;5093936;28;20435;-78
2022/06/30 06:48:55;;;;;;;32.03;30.03;;;;;;;;;;5093909;28;20411;-79
2022/06/30 06:51:22;;;;;;;34.37;31.97;;;;;;;;;;5093576;28;20472;-77
2022/06/30 06:53:49;;;;;;;32.27;30.17;;;;;;;;;;5093866;28;20416;-77
2022/06/30 06:56:17;;;;;;;32.40;30.30;;;;;;;;;;5093520;28;20455;-77
2022/06/30 06:58:46;;;;;;;32.20;30.03;;;;;;;;;;5093863;28;20472;-77
2022/06/30 07:01:13;;;;;;;31.43;29.40;;;;;;;;;;5093487;28;20453;-79
2022/06/30 07:03:41;;;;;;;31.10;28.90;;;;;;;;;;5093552;28;20917;-79
2022/06/30 07:06:08;;;;;;;31.20;29.30;;;;;;;;;;5093660;28;20408;-79
2022/06/30 07:08:36;;;;;;;32.63;30.53;;;;;;;;;;5093873;28;20757;-78
2022/06/30 07:11:03;;;;;;;33.07;30.97;;;;;;;;;;5093566;28;20419;-78
2022/06/30 07:13:32;;;;;;;32.63;30.63;;;;;;;;;;5093493;28;20473;-78
2022/06/30 07:16:01;;;;;;;33.20;31.10;;;;;;;;;;5093378;28;20978;-78
2022/06/30 07:18:28;;;;;;;33.30;31.20;;;;;;;;;;5093564;28;20437;-78
2022/06/30 07:20:56;;;;;;;33.73;31.13;;;;;;;;;;5093328;28;20447;-78
2022/06/30 07:23:23;;;;;;;33.60;31.43;;;;;;;;;;5092952;28;20429;-79
2022/06/30 07:25:50;;;;;;;32.20;30.10;;;;;;;;;;5093190;28;20411;-80
2022/06/30 07:28:18;;;;;;;34.03;31.57;;;;;;;;;;5092938;28;20449;-81
2022/06/30 07:30:45;;;;;;;32.97;30.80;;;;;;;;;;5093018;28;20440;-81
2022/06/30 07:33:14;;;;;;;34.33;32.13;;;;;;;;;;5074976;28;20428;-81
2022/06/30 07:35:41;;;;;;;34.43;32.20;;;;;;;;;;5093254;28;20455;-81
2022/06/30 07:38:09;;;;;;;33.53;31.33;;;;;;;;;;5093254;28;20507;-81
2022/06/30 07:40:36;;;;;;;32.27;30.13;;;;;;;;;;5092955;28;20412;-80
2022/06/30 07:43:04;;;;;;;33.50;31.30;;;;;;;;;;5075244;28;20417;-78
2022/06/30 07:45:31;;;;;;;32.90;30.70;;;;;;;;;;5085662;28;20488;-81
2022/06/30 07:47:59;;;;;;;32.87;30.77;;;;;;;;;;5075931;28;20528;-83
2022/06/30 07:50:28;;;;;;;34.77;32.53;;;;;;;;;;5072330;28;20474;-82
2022/06/30 07:52:55;;;;;;;33.80;31.50;;;;;;;;;;5072848;28;20500;-77
2022/06/30 07:55:22;;;;;;;33.53;31.33;;;;;;;;;;5072833;28;20464;-77
2022/06/30 07:57:50;;;;;;;32.70;30.60;;;;;;;;;;5072670;28;20438;-77
2022/06/30 08:00:18;;;;;;;34.47;32.07;;;;;;;;;;5072768;28;20439;-82
2022/06/30 08:02:45;;;;;;;33.70;31.60;;;;;;;;;;5072204;28;20524;-76
2022/06/30 08:05:14;;;;;;;35.30;33.03;;;;;;;;;;5072708;28;20417;-77
2022/06/30 08:07:42;;;;;;;32.97;30.87;;;;;;;;;;5072336;28;20934;-77
2022/06/30 08:10:11;;;;;;;33.77;31.57;;;;;;;;;;5072375;28;20434;-75
2022/06/30 08:12:39;;;;;;;31.90;29.90;;;;;;;;;;5072173;28;20446;-76
2022/06/30 08:15:07;;;;;;;34.37;31.60;;;;;;;;;;5072424;28;20494;-78
2022/06/30 08:17:34;;;;;;;32.37;30.17;;;;;;;;;;5072569;28;20424;-78
2022/06/30 08:20:01;;;;;;;33.07;30.57;;;;;;;;;;5072344;28;20767;-75
2022/06/30 08:22:29;;;;;;;34.07;31.77;;;;;;;;;;5072333;28;20413;-76
2022/06/30 08:24:58;;;;;;;35.53;33.03;;;;;;;;;;5072590;28;20425;-77
2022/06/30 08:27:26;;;;;;;34.73;32.33;;;;;;;;;;5072444;28;20440;-79
2022/06/30 08:29:53;;;;;;;35.67;33.37;;;;;;;;;;5072550;28;20417;-77
2022/06/30 08:32:20;;;;;;;34.53;32.27;;;;;;;;;;5072385;28;20500;-77
2022/06/30 08:34:48;;;;;;;36.33;33.93;;;;;;;;;;5073818;28;20414;-78
2022/06/30 08:37:15;;;;;;;33.17;31.07;;;;;;;;;;5076101;28;20405;-77
2022/06/30 08:42:29;;;;;;;33.80;31.60;;;;;;;;;;5075878;28;20778;-77
2022/06/30 08:45:17;;;;;;;32.90;30.87;;;;;;;;;;5075909;28;20840;-77
2022/06/30 08:47:45;;;;;;;35.27;32.97;;;;;;;;;;5075709;28;20447;-77
2022/06/30 08:50:14;;;;;;;34.27;32.07;;;;;;;;;;5075532;28;20491;-77
2022/06/30 08:52:45;;;;;;;35.43;33.20;;;;;;;;;;5075945;28;20445;-77
2022/06/30 08:55:13;;;;;;;33.37;31.37;;;;;;;;;;5075330;28;20828;-77
2022/06/30 08:57:43;;;;;;;34.23;32.20;;;;;;;;;;5075779;28;20421;-77
2022/06/30 09:00:11;;;;;;;33.23;31.23;;;;;;;;;;5075645;28;20853;-77
2022/06/30 09:02:38;;;;;;;34.27;32.10;;;;;;;;;;5075658;28;20541;-79
2022/06/30 09:05:07;;;;;;;33.87;31.57;;;;;;;;;;5075447;28;20409;-76
2022/06/30 09:07:34;;;;;;;33.63;31.53;;;;;;;;;;5075449;28;20924;-76
2022/06/30 09:10:02;;;;;;;33.67;31.43;;;;;;;;;;5075509;28;20453;-77
2022/06/30 09:12:29;;;;;;;33.63;31.43;;;;;;;;;;5075702;28;20410;-76
2022/06/30 09:14:59;;;;;;;32.90;30.90;;;;;;;;;;5074777;28;20790;-76
2022/06/30 09:17:27;;;;;;;33.80;31.50;;;;;;;;;;5075512;28;20463;-77
2022/06/30 09:19:57;;;;;;;34.73;32.23;;;;;;;;;;5075254;28;20416;-77
2022/06/30 09:22:26;;;;;;;33.97;31.70;;;;;;;;;;5075120;28;20785;-76
2022/06/30 09:24:57;;;;;;;35.03;32.87;;;;;;;;;;5075331;28;20492;-76
2022/06/30 09:27:26;;;;;;;32.20;30.13;;;;;;;;;;5075492;28;20472;-77
2022/06/30 09:29:55;;;;;;;33.97;31.87;;;;;;;;;;5075139;28;20507;-77
2022/06/30 09:32:24;;;;;;;32.20;30.20;;;;;;;;;;5074883;28;20442;-77
2022/06/30 09:34:52;;;;;;;33.07;30.80;;;;;;;;;;5074708;28;20935;-76
2022/06/30 09:37:20;;;;;;;34.17;31.97;;;;;;;;;;5075163;28;20843;-76
2022/06/30 09:39:48;;;;;;;34.20;32.20;;;;;;;;;;5074637;28;20449;-77
2022/06/30 09:42:15;;;;;;;35.00;32.83;;;;;;;;;;5074849;28;20453;-77
2022/06/30 09:44:49;;;;;;;34.90;32.90;;;;;;;;;;5073863;28;20445;-77
2022/06/30 09:47:17;;;;;;;34.97;32.77;;;;;;;;;;5074563;28;20460;-77
2022/06/30 09:49:48;;;;;;;32.63;30.63;;;;;;;;;;5074248;28;20510;-76
2022/06/30 09:52:18;;;;;;;33.17;31.07;;;;;;;;;;5074849;28;20504;-77
2022/06/30 09:54:56;;;;;;;33.33;31.33;;;;;;;;;;5074455;28;20441;-77
2022/06/30 09:57:24;;;;;;;33.00;30.90;;;;;;;;;;5074432;28;20420;-77
2022/06/30 09:59:59;;;;;;;32.97;31.07;;;;;;;;;;5074485;28;20450;-76
2022/06/30 10:02:30;;;;;;;34.10;32.10;;;;;;;;;;5074443;28;20405;-77
2022/06/30 10:05:00;;;;;;;33.07;30.80;;;;;;;;;;5074488;28;20784;-77
2022/06/30 10:07:27;;;;;;;34.60;32.40;;;;;;;;;;5074593;28;20466;-77
2022/06/30 10:09:55;;;;;;;32.13;30.13;;;;;;;;;;5074031;28;20966;-77
2022/06/30 10:12:23;;;;;;;33.80;31.70;;;;;;;;;;5074382;28;20410;-76
2022/06/30 10:14:52;;;;;;;32.63;30.73;;;;;;;;;;5074344;28;20523;-77
2022/06/30 10:17:20;;;;;;;32.90;30.80;;;;;;;;;;5074598;28;20475;-77
2022/06/30 10:19:48;;;;;;;31.80;29.80;;;;;;;;;;5074021;28;20413;-76
2022/06/30 10:22:17;;;;;;;33.20;31.20;;;;;;;;;;5074295;28;20412;-76
2022/06/30 10:24:51;;;;;;;33.37;31.27;;;;;;;;;;5074031;28;20413;-76
2022/06/30 10:27:19;;;;;;;34.10;32.00;;;;;;;;;;5073964;28;20434;-76
2022/06/30 10:29:49;;;;;;;32.60;30.40;;;;;;;;;;5073652;28;20409;-84
2022/06/30 10:32:21;;;;;;;33.77;31.67;;;;;;;;;;5073829;28;20925;-77
2022/06/30 10:34:55;;;;;;;34.30;31.93;;;;;;;;;;5073824;28;20444;-77
2022/06/30 10:37:27;;;;;;;33.10;31.10;;;;;;;;;;5073507;28;20979;-77
2022/06/30 10:39:57;;;;;;;31.63;29.67;;;;;;;;;;5073771;28;20438;-77
2022/06/30 10:42:43;;;;;;;32.60;30.60;;;;;;;;;;5073550;28;20423;-77
2022/06/30 10:45:25;;;;;;;32.40;30.30;;;;;;;;;;5073256;28;20942;-77
2022/06/30 10:47:59;;;;;;;31.20;29.30;;;;;;;;;;5073261;28;20461;-77
2022/06/30 10:50:36;;;;;;;32.87;30.87;;;;;;;;;;5073075;28;20448;-77
2022/06/30 10:53:06;;;;;;;32.07;30.17;;;;;;;;;;5073636;28;20443;-77
2022/06/30 10:55:45;;;;;;;32.80;30.80;;;;;;;;;;5073105;28;20489;-77
2022/06/30 10:58:13;;;;;;;33.40;31.40;;;;;;;;;;5072852;28;20509;-78
2022/06/30 11:00:48;;;;;;;33.00;31.10;;;;;;;;;;5073087;28;20501;-78
2022/06/30 11:03:34;;;;;;;32.60;30.70;;;;;;;;;;5073363;28;20412;-81
2022/06/30 11:06:04;;;;;;;34.40;32.30;;;;;;;;;;5073445;28;20439;-77
2022/06/30 11:08:50;;;;;;;32.50;30.60;;;;;;;;;;5073064;28;20484;-78
2022/06/30 11:11:36;;;;;;;32.67;30.47;;;;;;;;;;5073091;28;20412;-76
2022/06/30 11:14:20;;;;;;;33.07;30.90;;;;;;;;;;5072968;28;20425;-76
2022/06/30 11:16:49;;;;;;;33.20;31.20;;;;;;;;;;5059786;28;20522;-78
2022/06/30 11:19:18;;;;;;;33.40;31.40;;;;;;;;;;5072892;28;20456;-77
2022/06/30 11:21:45;;;;;;;32.43;30.43;;;;;;;;;;5073130;28;20421;-77
2022/06/30 11:24:16;;;;;;;33.10;31.20;;;;;;;;;;5073075;28;20763;-78
2022/06/30 11:29:29;;;;;;;31.60;29.70;;;;;;;;;;5073420;28;20743;-77
2022/06/30 11:31:59;;;;;;;31.30;29.20;;;;;;;;;;5073288;28;20442;-77
2022/06/30 11:34:28;;;;;;;31.93;29.93;;;;;;;;;;5072985;28;20439;-77
2022/06/30 11:36:56;;;;;;;30.17;28.37;;;;;;;;;;5072558;28;20981;-77
2022/06/30 11:39:26;;;;;;;32.90;30.37;;;;;;;;;;5072806;28;20755;-77
2022/06/30 11:41:57;;;;;;;31.30;29.43;;;;;;;;;;5072751;28;21156;-77
2022/06/30 11:44:25;;;;;;;31.13;29.30;;;;;;;;;;5072390;28;20436;-76
2022/06/30 11:46:53;;;;;;;32.63;30.30;;;;;;;;;;5073223;28;20827;-77
2022/06/30 11:49:21;;;;;;;31.90;29.97;;;;;;;;;;5072272;28;20437;-77
2022/06/30 11:51:49;;;;;;;31.10;29.27;;;;;;;;;;5072880;28;20424;-77
2022/06/30 11:54:17;;;;;;;32.47;30.47;;;;;;;;;;5072357;28;20472;-77
2022/06/30 11:56:47;;;;;;;31.37;29.53;;;;;;;;;;5072490;28;20468;-76
2022/06/30 11:59:14;;;;;;;31.10;29.30;;;;;;;;;;5072349;28;20442;-77
2022/06/30 12:01:41;;;;;;;31.07;29.33;;;;;;;;;;5072645;28;20934;-77
2022/06/30 12:04:15;;;;;;;32.07;30.17;;;;;;;;;;5072392;28;20793;-77
2022/06/30 12:06:43;;;;;;;31.77;29.57;;;;;;;;;;5072673;28;20413;-76
2022/06/30 12:09:10;;;;;;;31.60;29.60;;;;;;;;;;5075196;28;20431;-77
2022/06/30 12:11:37;;;;;;;33.00;31.00;;;;;;;;;;5076929;28;20429;-76
2022/06/30 12:14:06;;;;;;;32.37;30.10;;;;;;;;;;5076431;28;20916;-77
2022/06/30 12:16:33;;;;;;;30.73;28.93;;;;;;;;;;5076601;28;20481;-76
2022/06/30 12:19:01;;;;;;;30.03;28.30;;;;;;;;;;5076153;28;20416;-77
2022/06/30 12:21:28;;;;;;;29.23;27.63;;;;;;;;;;5076184;28;20759;-77
2022/06/30 12:23:56;;;;;;;31.40;29.70;;;;;;;;;;5076414;28;20431;-76
2022/06/30 12:26:24;;;;;;;30.27;28.57;;;;;;;;;;5076457;28;20419;-77
2022/06/30 12:28:55;;;;;;;31.43;29.57;;;;;;;;;;5076112;28;20871;-77
2022/06/30 12:31:27;;;;;;;31.20;29.40;;;;;;;;;;5076332;28;20430;-77
2022/06/30 12:33:55;;;;;;;30.00;28.13;;;;;;;;;;5076234;28;20416;-76
2022/06/30 12:36:23;;;;;;;29.90;28.10;;;;;;;;;;5075871;28;20551;-76
2022/06/30 12:38:51;;;;;;;30.03;28.13;;;;;;;;;;5075872;28;20420;-76
2022/06/30 12:41:18;;;;;;;30.07;28.17;;;;;;;;;;5075896;28;20420;-76
2022/06/30 12:43:46;;;;;;;31.07;29.27;;;;;;;;;;5075981;28;20424;-76
2022/06/30 12:46:14;;;;;;;29.60;27.90;;;;;;;;;;5076019;28;20436;-76
2022/06/30 12:48:44;;;;;;;28.83;27.23;;;;;;;;;;5075592;28;20443;-76
2022/06/30 12:51:12;;;;;;;29.73;28.00;;;;;;;;;;5075428;28;20478;-76
2022/06/30 12:53:40;;;;;;;29.83;28.03;;;;;;;;;;5075943;28;20778;-76
2022/06/30 12:56:09;;;;;;;30.53;28.70;;;;;;;;;;5075445;28;20412;-76
2022/06/30 12:58:49;;;;;;;30.20;28.40;;;;;;;;;;5075810;28;20409;-74
2022/06/30 13:01:17;;;;;;;29.60;27.80;;;;;;;;;;5075783;28;20415;-75
2022/06/30 13:03:50;;;;;;;29.17;27.40;;;;;;;;;;5075719;28;20430;-76
2022/06/30 13:06:18;;;;;;;29.97;28.20;;;;;;;;;;5075706;28;20478;-76
2022/06/30 13:08:47;;;;;;;28.90;27.30;;;;;;;;;;5075772;28;20452;-76
2022/06/30 13:11:16;;;;;;;30.60;28.70;;;;;;;;;;5075672;28;20444;-77
2022/06/30 13:13:44;;;;;;;31.20;29.30;;;;;;;;;;5074960;28;20439;-76
2022/06/30 13:16:12;;;;;;;29.80;27.93;;;;;;;;;;5075176;28;20843;-76
2022/06/30 13:18:39;;;;;;;30.00;28.20;;;;;;;;;;5075067;28;20413;-76
2022/06/30 13:21:08;;;;;;;28.17;26.47;;;;;;;;;;5074184;28;20966;-77
2022/06/30 13:23:36;;;;;;;30.10;28.37;;;;;;;;;;5075426;28;20428;-76
2022/06/30 13:26:03;;;;;;;31.03;28.80;;;;;;;;;;5075415;28;20434;-76
2022/06/30 13:28:30;;;;;;;30.70;28.97;;;;;;;;;;5075039;28;20448;-76
2022/06/30 13:30:57;;;;;;;31.33;29.23;;;;;;;;;;5075128;28;20769;-76
2022/06/30 13:33:25;;;;;;;30.83;28.93;;;;;;;;;;5074894;28;20431;-76
2022/06/30 13:35:52;;;;;;;30.47;28.67;;;;;;;;;;5074888;28;20886;-76
2022/06/30 13:38:21;;;;;;;30.70;28.80;;;;;;;;;;5075032;28;20535;-81
2022/06/30 13:40:48;;;;;;;30.90;29.10;;;;;;;;;;5074817;28;21174;-76
2022/06/30 13:43:16;;;;;;;30.80;28.97;;;;;;;;;;5075035;28;20435;-76
2022/06/30 13:45:43;;;;;;;31.70;29.70;;;;;;;;;;5074922;28;20436;-76
2022/06/30 13:48:10;;;;;;;30.73;28.93;;;;;;;;;;5074515;28;20412;-77
2022/06/30 13:50:38;;;;;;;30.13;28.20;;;;;;;;;;5074754;28;20453;-76
2022/06/30 13:53:05;;;;;;;30.30;28.43;;;;;;;;;;5074960;28;20401;-76
2022/06/30 13:55:34;;;;;;;31.90;29.97;;;;;;;;;;5074849;28;20442;-77
2022/06/30 13:58:01;;;;;;;31.73;29.83;;;;;;;;;;5074469;28;20531;-77
2022/06/30 14:00:29;;;;;;;31.70;29.67;;;;;;;;;;5074908;28;20450;-77
2022/06/30 14:02:57;;;;;;;32.00;30.10;;;;;;;;;;5074670;28;20433;-77
2022/06/30 14:05:25;;;;;;;32.70;30.70;;;;;;;;;;5074617;28;20417;-77
2022/06/30 14:07:52;;;;;;;29.13;27.33;;;;;;;;;;5074661;28;20410;-77
2022/06/30 14:10:19;;;;;;;28.10;26.50;;;;;;;;;;5074596;28;20449;-77
2022/06/30 14:12:48;;;;;;;29.70;27.90;;;;;;;;;;5074525;28;20421;-80
2022/06/30 14:15:16;;;;;;;29.23;27.53;;;;;;;;;;5074128;28;20416;-77
2022/06/30 14:17:43;;;;;;;29.73;28.03;;;;;;;;;;5074273;28;20457;-77
2022/06/30 14:20:11;;;;;;;29.60;27.90;;;;;;;;;;5074212;28;20413;-77
2022/06/30 14:22:40;;;;;;;27.90;26.20;;;;;;;;;;5073906;28;20921;-77
2022/06/30 14:25:08;;;;;;;28.00;26.40;;;;;;;;;;5074297;28;20509;-77
2022/06/30 14:27:36;;;;;;;28.73;27.13;;;;;;;;;;5074231;28;20433;-76
2022/06/30 14:30:05;;;;;;;28.00;26.40;;;;;;;;;;5074464;28;20405;-78
2022/06/30 14:32:34;;;;;;;28.53;26.83;;;;;;;;;;5074111;28;20417;-76
2022/06/30 14:35:01;;;;;;;27.40;25.90;;;;;;;;;;5073656;28;20991;-77
2022/06/30 14:37:29;;;;;;;29.03;27.33;;;;;;;;;;5074085;28;20895;-77
2022/06/30 14:39:56;;;;;;;30.03;28.33;;;;;;;;;;5073850;28;20459;-77
2022/06/30 14:45:10;;;;;;;30.07;28.10;;;;;;;;;;5073620;28;21271;-77
2022/06/30 14:47:38;;;;;;;30.07;28.27;;;;;;;;;;5073761;28;20424;-77